createdAt,value
2018-03-23T00:00:20.336Z,0.00
2018-03-23T00:01:19.155Z,0.00
2018-03-23T00:02:19.995Z,0.00
2018-03-23T00:03:21.960Z,0.00
2018-03-23T00:04:19.060Z,0.00
2018-03-23T00:05:19.081Z,0.00
2018-03-23T00:06:21.814Z,0.00
2018-03-23T00:07:19.195Z,0.00
2018-03-23T00:08:19.098Z,0.00
2018-03-23T00:09:19.100Z,0.00
2018-03-23T00:10:19.134Z,0.00
2018-03-23T00:11:19.122Z,180.00
2018-03-23T00:12:19.120Z,190.00
2018-03-23T00:13:20.412Z,201.00
2018-03-23T00:14:19.142Z,180.00
2018-03-23T00:15:19.143Z,0.00
2018-03-23T00:16:19.145Z,0.00
2018-03-23T00:17:19.163Z,0.00
2018-03-23T00:18:19.161Z,0.00
2018-03-23T00:19:19.070Z,0.00
2018-03-23T00:20:19.081Z,0.00
2018-03-23T00:21:19.089Z,0.00
2018-03-23T00:22:19.096Z,136.00
2018-03-23T00:23:19.098Z,135.00
2018-03-23T00:24:19.109Z,0.00
2018-03-23T00:25:19.118Z,0.00
2018-03-23T00:26:19.122Z,0.00
2018-03-23T00:27:19.139Z,190.00
2018-03-23T00:28:19.133Z,0.00
2018-03-23T00:29:19.146Z,180.00
2018-03-23T00:30:19.156Z,348.00
2018-03-23T00:31:19.164Z,351.00
2018-03-23T00:32:19.169Z,337.00
2018-03-23T00:33:19.184Z,344.00
2018-03-23T00:34:19.090Z,0.00
2018-03-23T00:35:19.085Z,293.00
2018-03-23T00:36:19.090Z,317.00
2018-03-23T00:37:19.110Z,168.00
2018-03-23T00:38:19.067Z,135.00
2018-03-23T00:39:19.074Z,82.00
2018-03-23T00:40:19.130Z,29.00
2018-03-23T00:41:19.126Z,338.00
2018-03-23T00:42:19.134Z,150.00
2018-03-23T00:43:19.150Z,296.00
2018-03-23T00:44:19.144Z,332.00
2018-03-23T00:45:19.154Z,23.00
2018-03-23T00:46:19.171Z,358.00
2018-03-23T00:47:19.169Z,86.00
2018-03-23T00:48:19.172Z,346.00
2018-03-23T00:49:19.083Z,154.00
2018-03-23T00:50:19.093Z,296.00
2018-03-23T00:51:19.094Z,243.00
2018-03-23T00:52:19.105Z,286.00
2018-03-23T00:53:19.117Z,309.00
2018-03-23T00:54:19.222Z,300.00
2018-03-23T00:55:19.126Z,336.00
2018-03-23T00:56:19.136Z,337.00
2018-03-23T00:57:19.142Z,0.00
2018-03-23T00:58:19.145Z,0.00
2018-03-23T00:59:19.161Z,258.00
2018-03-23T01:00:20.394Z,0.00
2018-03-23T01:01:19.169Z,0.00
2018-03-23T01:02:19.182Z,270.00
2018-03-23T01:03:19.180Z,337.00
2018-03-23T01:04:19.298Z,0.00
2018-03-23T01:05:19.102Z,337.00
2018-03-23T01:06:19.113Z,337.00
2018-03-23T01:07:19.109Z,0.00
2018-03-23T01:08:19.119Z,0.00
2018-03-23T01:09:19.129Z,45.00
2018-03-23T01:10:19.134Z,104.00
2018-03-23T01:11:19.136Z,0.00
2018-03-23T01:12:19.110Z,0.00
2018-03-23T01:13:19.154Z,0.00
2018-03-23T01:14:21.260Z,0.00
2018-03-23T01:15:19.174Z,0.00
2018-03-23T01:16:19.173Z,0.00
2018-03-23T01:17:19.182Z,0.00
2018-03-23T01:18:19.199Z,0.00
2018-03-23T01:19:19.102Z,157.00
2018-03-23T01:20:19.102Z,157.00
2018-03-23T01:21:19.109Z,0.00
2018-03-23T01:22:19.127Z,135.00
2018-03-23T01:23:19.128Z,0.00
2018-03-23T01:24:19.134Z,135.00
2018-03-23T01:25:19.143Z,0.00
2018-03-23T01:26:19.148Z,0.00
2018-03-23T01:27:19.149Z,120.00
2018-03-23T01:28:19.167Z,117.00
2018-03-23T01:29:19.166Z,130.00
2018-03-23T01:30:19.174Z,135.00
2018-03-23T01:31:19.059Z,125.00
2018-03-23T01:32:19.191Z,114.00
2018-03-23T01:33:19.197Z,132.00
2018-03-23T01:34:19.106Z,135.00
2018-03-23T01:35:19.010Z,142.00
2018-03-23T01:36:19.118Z,130.00
2018-03-23T01:37:19.131Z,132.00
2018-03-23T01:38:19.025Z,135.00
2018-03-23T01:39:19.095Z,161.00
2018-03-23T01:40:19.147Z,144.00
2018-03-23T01:41:19.158Z,143.00
2018-03-23T01:42:19.061Z,135.00
2018-03-23T01:43:19.274Z,136.00
2018-03-23T01:44:19.183Z,126.00
2018-03-23T01:45:19.177Z,135.00
2018-03-23T01:46:19.191Z,135.00
2018-03-23T01:47:19.303Z,0.00
2018-03-23T01:48:19.202Z,0.00
2018-03-23T01:49:19.105Z,0.00
2018-03-23T01:50:19.118Z,0.00
2018-03-23T01:51:19.127Z,0.00
2018-03-23T01:52:19.131Z,0.00
2018-03-23T01:53:19.342Z,0.00
2018-03-23T01:54:19.149Z,0.00
2018-03-23T01:55:19.160Z,0.00
2018-03-23T01:56:19.161Z,0.00
2018-03-23T01:57:20.255Z,0.00
2018-03-23T01:58:19.176Z,0.00
2018-03-23T01:59:19.291Z,0.00
2018-03-23T02:00:20.526Z,0.00
2018-03-23T02:01:19.330Z,0.00
2018-03-23T02:02:19.207Z,0.00
2018-03-23T02:03:19.264Z,0.00
2018-03-23T02:04:19.123Z,0.00
2018-03-23T02:05:19.130Z,0.00
2018-03-23T02:06:19.093Z,0.00
2018-03-23T02:07:19.144Z,0.00
2018-03-23T02:08:19.254Z,0.00
2018-03-23T02:09:19.150Z,0.00
2018-03-23T02:10:19.170Z,0.00
2018-03-23T02:11:21.223Z,0.00
2018-03-23T02:12:19.173Z,0.00
2018-03-23T02:13:19.186Z,0.00
2018-03-23T02:14:19.186Z,0.00
2018-03-23T02:15:19.192Z,0.00
2018-03-23T02:16:20.389Z,0.00
2018-03-23T02:17:19.205Z,0.00
2018-03-23T02:18:19.216Z,0.00
2018-03-23T02:19:19.118Z,0.00
2018-03-23T02:20:19.134Z,0.00
2018-03-23T02:21:20.270Z,0.00
2018-03-23T02:22:19.142Z,0.00
2018-03-23T02:23:19.155Z,0.00
2018-03-23T02:24:20.250Z,0.00
2018-03-23T02:25:19.273Z,0.00
2018-03-23T02:26:19.177Z,0.00
2018-03-23T02:27:19.081Z,0.00
2018-03-23T02:28:19.082Z,0.00
2018-03-23T02:29:20.323Z,0.00
2018-03-23T02:30:19.198Z,0.00
2018-03-23T02:31:19.108Z,0.00
2018-03-23T02:32:19.113Z,0.00
2018-03-23T02:33:20.141Z,0.00
2018-03-23T02:34:19.129Z,292.00
2018-03-23T02:35:19.137Z,292.00
2018-03-23T02:36:19.826Z,292.00
2018-03-23T02:37:19.150Z,0.00
2018-03-23T02:38:19.357Z,292.00
2018-03-23T02:39:19.061Z,0.00
2018-03-23T02:40:19.080Z,292.00
2018-03-23T02:41:19.179Z,0.00
2018-03-23T02:42:19.390Z,0.00
2018-03-23T02:43:19.191Z,0.00
2018-03-23T02:44:19.198Z,0.00
2018-03-23T02:45:19.179Z,0.00
2018-03-23T02:46:19.322Z,0.00
2018-03-23T02:47:19.221Z,0.00
2018-03-23T02:48:19.234Z,0.00
2018-03-23T02:49:19.138Z,0.00
2018-03-23T02:50:19.450Z,0.00
2018-03-23T02:51:19.147Z,0.00
2018-03-23T02:52:19.161Z,0.00
2018-03-23T02:53:19.163Z,135.00
2018-03-23T02:54:19.166Z,112.00
2018-03-23T02:55:19.279Z,0.00
2018-03-23T02:56:18.978Z,0.00
2018-03-23T02:57:19.166Z,135.00
2018-03-23T02:58:19.207Z,135.00
2018-03-23T02:59:19.307Z,129.00
2018-03-23T03:00:20.338Z,135.00
2018-03-23T03:01:19.225Z,135.00
2018-03-23T03:02:19.226Z,180.00
2018-03-23T03:03:23.747Z,180.00
2018-03-23T03:04:19.247Z,135.00
2018-03-23T03:05:19.152Z,135.00
2018-03-23T03:06:19.153Z,135.00
2018-03-23T03:07:19.367Z,135.00
2018-03-23T03:08:19.174Z,0.00
2018-03-23T03:09:19.179Z,135.00
2018-03-23T03:10:19.182Z,0.00
2018-03-23T03:11:19.201Z,0.00
2018-03-23T03:12:20.223Z,0.00
2018-03-23T03:13:19.206Z,0.00
2018-03-23T03:14:19.218Z,0.00
2018-03-23T03:15:19.219Z,0.00
2018-03-23T03:16:19.225Z,0.00
2018-03-23T03:17:19.199Z,0.00
2018-03-23T03:18:19.243Z,0.00
2018-03-23T03:19:19.147Z,0.00
2018-03-23T03:20:19.264Z,0.00
2018-03-23T03:21:19.166Z,0.00
2018-03-23T03:22:19.181Z,0.00
2018-03-23T03:23:19.137Z,0.00
2018-03-23T03:24:19.388Z,0.00
2018-03-23T03:25:22.111Z,0.00
2018-03-23T03:26:19.404Z,0.00
2018-03-23T03:27:19.215Z,0.00
2018-03-23T03:28:19.215Z,0.00
2018-03-23T03:29:20.349Z,0.00
2018-03-23T03:30:20.470Z,0.00
2018-03-23T03:31:19.334Z,292.00
2018-03-23T03:32:19.238Z,285.00
2018-03-23T03:33:19.349Z,309.00
2018-03-23T03:34:19.368Z,292.00
2018-03-23T03:35:21.409Z,286.00
2018-03-23T03:36:19.374Z,292.00
2018-03-23T03:37:19.379Z,292.00
2018-03-23T03:38:19.181Z,0.00
2018-03-23T03:39:19.190Z,311.00
2018-03-23T03:40:19.202Z,338.00
2018-03-23T03:41:20.429Z,102.00
2018-03-23T03:42:19.209Z,0.00
2018-03-23T03:43:19.223Z,315.00
2018-03-23T03:44:19.434Z,45.00
2018-03-23T03:45:19.231Z,0.00
2018-03-23T03:46:19.444Z,0.00
2018-03-23T03:47:19.246Z,12.00
2018-03-23T03:48:19.254Z,315.00
2018-03-23T03:49:19.159Z,318.00
2018-03-23T03:50:19.271Z,76.00
2018-03-23T03:51:19.174Z,0.00
2018-03-23T03:52:19.146Z,294.00
2018-03-23T03:53:19.153Z,309.00
2018-03-23T03:54:19.298Z,89.00
2018-03-23T03:55:19.309Z,287.00
2018-03-23T03:56:19.217Z,0.00
2018-03-23T03:57:19.186Z,0.00
2018-03-23T03:58:20.658Z,45.00
2018-03-23T03:59:19.238Z,45.00
2018-03-23T04:00:20.370Z,45.00
2018-03-23T04:01:19.247Z,45.00
2018-03-23T04:02:19.258Z,0.00
2018-03-23T04:03:20.585Z,337.00
2018-03-23T04:04:19.162Z,0.00
2018-03-23T04:05:19.780Z,180.00
2018-03-23T04:06:19.188Z,89.00
2018-03-23T04:07:21.440Z,89.00
2018-03-23T04:08:19.198Z,89.00
2018-03-23T04:09:19.208Z,89.00
2018-03-23T04:10:19.310Z,292.00
2018-03-23T04:11:19.422Z,11.00
2018-03-23T04:12:19.228Z,335.00
2018-03-23T04:13:19.229Z,45.00
2018-03-23T04:14:19.233Z,0.00
2018-03-23T04:15:19.414Z,0.00
2018-03-23T04:16:19.224Z,11.00
2018-03-23T04:17:19.226Z,11.00
2018-03-23T04:18:19.276Z,289.00
2018-03-23T04:19:19.282Z,300.00
2018-03-23T04:20:19.280Z,293.00
2018-03-23T04:21:19.186Z,67.00
2018-03-23T04:22:19.199Z,70.00
2018-03-23T04:23:19.196Z,89.00
2018-03-23T04:24:19.314Z,89.00
2018-03-23T04:25:19.316Z,252.00
2018-03-23T04:26:20.353Z,89.00
2018-03-23T04:27:19.226Z,157.00
2018-03-23T04:28:19.346Z,89.00
2018-03-23T04:29:19.241Z,0.00
2018-03-23T04:30:19.251Z,0.00
2018-03-23T04:31:19.262Z,0.00
2018-03-23T04:32:20.286Z,0.00
2018-03-23T04:33:19.276Z,89.00
2018-03-23T04:34:19.281Z,45.00
2018-03-23T04:35:19.189Z,0.00
2018-03-23T04:36:19.194Z,135.00
2018-03-23T04:37:19.306Z,337.00
2018-03-23T04:38:19.210Z,357.00
2018-03-23T04:39:19.215Z,305.00
2018-03-23T04:40:19.702Z,297.00
2018-03-23T04:41:19.330Z,3.00
2018-03-23T04:42:19.337Z,292.00
2018-03-23T04:43:19.242Z,292.00
2018-03-23T04:44:19.258Z,292.00
2018-03-23T04:45:19.357Z,15.00
2018-03-23T04:46:19.161Z,106.00
2018-03-23T04:47:19.279Z,0.00
2018-03-23T04:48:19.278Z,258.00
2018-03-23T04:49:19.394Z,0.00
2018-03-23T04:50:19.185Z,11.00
2018-03-23T04:51:21.613Z,45.00
2018-03-23T04:52:19.208Z,0.00
2018-03-23T04:53:19.215Z,0.00
2018-03-23T04:54:19.227Z,22.00
2018-03-23T04:55:19.229Z,89.00
2018-03-23T04:56:19.240Z,0.00
2018-03-23T04:57:19.348Z,0.00
2018-03-23T04:58:19.460Z,0.00
2018-03-23T04:59:19.262Z,0.00
2018-03-23T05:00:20.806Z,0.00
2018-03-23T05:01:20.302Z,0.00
2018-03-23T05:02:19.388Z,0.00
2018-03-23T05:03:19.859Z,0.00
2018-03-23T05:04:19.300Z,0.00
2018-03-23T05:05:19.193Z,0.00
2018-03-23T05:06:19.315Z,0.00
2018-03-23T05:07:19.223Z,0.00
2018-03-23T05:08:19.218Z,0.00
2018-03-23T05:09:19.226Z,0.00
2018-03-23T05:10:19.204Z,0.00
2018-03-23T05:11:19.343Z,0.00
2018-03-23T05:12:19.248Z,0.00
2018-03-23T05:13:19.261Z,0.00
2018-03-23T05:14:19.225Z,0.00
2018-03-23T05:15:19.387Z,0.00
2018-03-23T05:16:19.281Z,270.00
2018-03-23T05:17:19.282Z,0.00
2018-03-23T05:18:19.283Z,89.00
2018-03-23T05:19:20.314Z,270.00
2018-03-23T05:20:19.307Z,0.00
2018-03-23T05:21:19.209Z,0.00
2018-03-23T05:22:19.223Z,225.00
2018-03-23T05:23:19.429Z,295.00
2018-03-23T05:24:19.234Z,282.00
2018-03-23T05:25:19.239Z,292.00
2018-03-23T05:26:19.355Z,292.00
2018-03-23T05:27:19.254Z,292.00
2018-03-23T05:28:19.258Z,292.00
2018-03-23T05:29:19.273Z,292.00
2018-03-23T05:30:19.277Z,0.00
2018-03-23T05:31:19.242Z,0.00
2018-03-23T05:32:19.293Z,292.00
2018-03-23T05:33:19.294Z,0.00
2018-03-23T05:34:19.262Z,0.00
2018-03-23T05:35:19.177Z,0.00
2018-03-23T05:36:19.317Z,0.00
2018-03-23T05:37:19.434Z,0.00
2018-03-23T05:38:19.230Z,0.00
2018-03-23T05:39:19.241Z,0.00
2018-03-23T05:40:22.108Z,0.00
2018-03-23T05:41:19.250Z,0.00
2018-03-23T05:42:19.153Z,0.00
2018-03-23T05:43:19.266Z,0.00
2018-03-23T05:44:22.029Z,0.00
2018-03-23T05:45:19.287Z,0.00
2018-03-23T05:46:19.304Z,0.00
2018-03-23T05:47:22.174Z,0.00
2018-03-23T05:48:19.307Z,0.00
2018-03-23T05:49:19.409Z,0.00
2018-03-23T05:50:19.216Z,0.00
2018-03-23T05:51:19.182Z,0.00
2018-03-23T05:52:19.329Z,0.00
2018-03-23T05:53:19.519Z,0.00
2018-03-23T05:54:19.242Z,0.00
2018-03-23T05:55:19.257Z,0.00
2018-03-23T05:56:19.270Z,0.00
2018-03-23T05:57:20.402Z,135.00
2018-03-23T05:58:19.281Z,135.00
2018-03-23T05:59:19.278Z,0.00
2018-03-23T06:00:20.414Z,0.00
2018-03-23T06:01:19.253Z,0.00
2018-03-23T06:02:19.297Z,89.00
2018-03-23T06:03:19.311Z,0.00
2018-03-23T06:04:19.326Z,0.00
2018-03-23T06:05:19.227Z,337.00
2018-03-23T06:06:19.329Z,0.00
2018-03-23T06:07:19.233Z,337.00
2018-03-23T06:08:19.244Z,96.00
2018-03-23T06:09:19.251Z,0.00
2018-03-23T06:10:19.361Z,0.00
2018-03-23T06:11:19.270Z,89.00
2018-03-23T06:12:19.272Z,0.00
2018-03-23T06:13:19.274Z,67.00
2018-03-23T06:14:19.386Z,337.00
2018-03-23T06:15:22.060Z,0.00
2018-03-23T06:16:19.298Z,75.00
2018-03-23T06:17:19.314Z,90.00
2018-03-23T06:18:19.529Z,327.00
2018-03-23T06:20:19.230Z,28.00
2018-03-23T06:21:19.341Z,0.00
2018-03-23T06:22:19.241Z,0.00
2018-03-23T06:23:20.467Z,0.00
2018-03-23T06:24:24.995Z,0.00
2018-03-23T06:25:37.253Z,0.00
2018-03-23T06:26:21.479Z,67.00
2018-03-23T06:27:19.482Z,108.00
2018-03-23T06:28:19.387Z,67.00
2018-03-23T06:31:51.226Z,99.00
2018-03-23T06:32:22.132Z,106.00
2018-03-23T06:33:28.476Z,0.00
2018-03-23T06:34:19.303Z,35.00
2018-03-23T06:35:19.319Z,33.00
2018-03-23T06:36:26.028Z,352.00
2018-03-23T06:37:20.492Z,14.00
2018-03-23T06:38:19.618Z,356.00
2018-03-23T06:39:19.261Z,0.00
2018-03-23T06:40:19.231Z,213.00
2018-03-23T06:41:20.837Z,112.00
2018-03-23T06:42:19.282Z,135.00
2018-03-23T06:43:20.110Z,0.00
2018-03-23T06:44:21.891Z,135.00
2018-03-23T06:45:19.302Z,263.00
2018-03-23T06:46:19.315Z,266.00
2018-03-23T06:47:20.525Z,53.00
2018-03-23T06:48:19.313Z,358.00
2018-03-23T06:49:19.342Z,356.00
2018-03-23T06:50:19.338Z,48.00
2018-03-23T06:51:34.297Z,90.00
2018-03-23T06:52:49.665Z,21.00
2018-03-23T06:53:20.462Z,96.00
2018-03-23T06:54:24.577Z,354.00
2018-03-23T06:55:19.275Z,80.00
2018-03-23T06:56:19.980Z,89.00
2018-03-23T06:57:19.395Z,89.00
2018-03-23T06:58:19.194Z,89.00
2018-03-23T06:59:22.380Z,0.00
2018-03-23T07:00:20.642Z,258.00
2018-03-23T07:01:19.300Z,45.00
2018-03-23T07:02:19.330Z,191.00
2018-03-23T07:03:19.103Z,180.00
2018-03-23T07:04:19.348Z,168.00
2018-03-23T07:06:14.542Z,305.00
2018-03-23T07:06:31.946Z,57.00
2018-03-23T07:07:19.257Z,75.00
2018-03-23T07:08:19.267Z,0.00
2018-03-23T07:09:19.283Z,95.00
2018-03-23T07:10:19.182Z,112.00
2018-03-23T07:11:19.294Z,149.00
2018-03-23T07:12:19.302Z,180.00
2018-03-23T07:13:19.303Z,0.00
2018-03-23T07:14:19.310Z,135.00
2018-03-23T07:15:19.322Z,80.00
2018-03-23T07:16:19.325Z,35.00
2018-03-23T07:17:19.331Z,71.00
2018-03-23T07:18:19.342Z,72.00
2018-03-23T07:19:19.346Z,135.00
2018-03-23T07:20:25.291Z,137.00
2018-03-23T07:21:19.370Z,135.00
2018-03-23T07:22:19.270Z,76.00
2018-03-23T07:23:19.274Z,74.00
2018-03-23T07:24:19.178Z,76.00
2018-03-23T07:25:19.182Z,117.00
2018-03-23T07:26:28.511Z,90.00
2018-03-23T07:27:19.817Z,174.00
2018-03-23T07:28:19.208Z,186.00
2018-03-23T07:29:31.748Z,132.00
2018-03-23T07:30:29.860Z,113.00
2018-03-23T07:31:29.856Z,131.00
2018-03-23T07:32:22.525Z,55.00
2018-03-23T07:33:19.346Z,81.00
2018-03-23T07:34:19.357Z,111.00
2018-03-23T07:35:19.360Z,114.00
2018-03-23T07:36:19.366Z,170.00
2018-03-23T07:37:21.937Z,85.00
2018-03-23T07:38:19.286Z,71.00
2018-03-23T07:39:19.190Z,52.00
2018-03-23T07:40:19.291Z,134.00
2018-03-23T07:41:37.433Z,146.00
2018-03-23T07:42:19.209Z,177.00
2018-03-23T07:43:19.214Z,180.00
2018-03-23T07:44:46.980Z,184.00
2018-03-23T07:45:19.245Z,182.00
2018-03-23T07:46:19.236Z,173.00
2018-03-23T07:47:27.806Z,154.00
2018-03-23T07:48:19.253Z,111.00
2018-03-23T07:49:19.259Z,45.00
2018-03-23T07:50:19.272Z,51.00
2018-03-23T07:51:19.349Z,139.00
2018-03-23T07:52:19.278Z,328.00
2018-03-23T07:53:19.291Z,335.00
2018-03-23T07:54:19.250Z,204.00
2018-03-23T07:55:21.567Z,334.00
2018-03-23T07:56:19.174Z,167.00
2018-03-23T07:57:19.178Z,156.00
2018-03-23T07:58:19.181Z,176.00
2018-03-23T07:59:19.198Z,168.00
2018-03-23T08:00:20.529Z,151.00
2018-03-23T08:01:19.205Z,161.00
2018-03-23T08:02:19.255Z,174.00
2018-03-23T08:03:19.226Z,176.00
2018-03-23T08:04:25.900Z,168.00
2018-03-23T08:05:19.288Z,152.00
2018-03-23T08:06:19.278Z,138.00
2018-03-23T08:07:19.304Z,165.00
2018-03-23T08:08:19.290Z,135.00
2018-03-23T08:09:19.301Z,333.00
2018-03-23T08:10:19.321Z,332.00
2018-03-23T08:11:19.322Z,177.00
2018-03-23T08:12:19.323Z,167.00
2018-03-23T08:13:24.926Z,167.00
2018-03-23T08:14:19.339Z,141.00
2018-03-23T08:15:19.243Z,99.00
2018-03-23T08:16:19.358Z,101.00
2018-03-23T08:17:19.361Z,194.00
2018-03-23T08:18:19.369Z,286.00
2018-03-23T08:19:19.378Z,147.00
2018-03-23T08:20:19.483Z,144.00
2018-03-23T08:21:19.391Z,140.00
2018-03-23T08:22:19.297Z,173.00
2018-03-23T08:23:19.195Z,211.00
2018-03-23T08:24:19.210Z,146.00
2018-03-23T08:25:19.210Z,127.00
2018-03-23T08:26:19.223Z,96.00
2018-03-23T08:27:19.229Z,105.00
2018-03-23T08:28:19.217Z,162.00
2018-03-23T08:29:19.350Z,161.00
2018-03-23T08:30:19.311Z,108.00
2018-03-23T08:31:19.255Z,106.00
2018-03-23T08:32:19.331Z,153.00
2018-03-23T08:33:19.365Z,144.00
2018-03-23T08:34:19.183Z,326.00
2018-03-23T08:35:19.149Z,173.00
2018-03-23T08:36:19.207Z,140.00
2018-03-23T08:37:19.297Z,155.00
2018-03-23T08:38:19.303Z,172.00
2018-03-23T08:39:19.313Z,170.00
2018-03-23T08:40:19.114Z,139.00
2018-03-23T08:41:19.222Z,118.00
2018-03-23T08:42:19.142Z,91.00
2018-03-23T08:43:19.147Z,266.00
2018-03-23T08:44:21.503Z,202.00
2018-03-23T08:45:37.450Z,338.00
2018-03-23T08:46:19.158Z,351.00
2018-03-23T08:47:26.229Z,352.00
2018-03-23T08:48:19.178Z,152.00
2018-03-23T08:49:19.354Z,158.00
2018-03-23T08:50:19.261Z,105.00
2018-03-23T08:51:19.301Z,134.00
2018-03-23T08:52:19.282Z,178.00
2018-03-23T08:53:19.178Z,137.00
2018-03-23T08:54:19.282Z,123.00
2018-03-23T08:55:19.197Z,106.00
2018-03-23T08:56:19.211Z,163.00
2018-03-23T08:57:19.209Z,153.00
2018-03-23T08:58:19.214Z,120.00
2018-03-23T08:59:19.221Z,113.00
2018-03-23T09:00:20.549Z,160.00
2018-03-23T09:01:19.227Z,203.00
2018-03-23T09:02:22.084Z,86.00
2018-03-23T09:03:19.247Z,90.00
2018-03-23T09:04:19.277Z,104.00
2018-03-23T09:05:19.261Z,103.00
2018-03-23T09:06:19.371Z,84.00
2018-03-23T09:07:34.831Z,122.00
2018-03-23T09:08:19.287Z,145.00
2018-03-23T09:09:19.295Z,279.00
2018-03-23T09:10:19.319Z,335.00
2018-03-23T09:11:19.307Z,337.00
2018-03-23T09:12:19.315Z,341.00
2018-03-23T09:13:19.323Z,292.00
2018-03-23T09:14:19.326Z,165.00
2018-03-23T09:15:19.376Z,121.00
2018-03-23T09:16:19.384Z,153.00
2018-03-23T09:17:19.389Z,181.00
2018-03-23T09:18:19.358Z,197.00
2018-03-23T09:19:23.259Z,191.00
2018-03-23T09:20:19.413Z,306.00
2018-03-23T09:21:19.410Z,173.00
2018-03-23T09:22:19.480Z,178.00
2018-03-23T09:23:19.283Z,303.00
2018-03-23T09:24:19.298Z,351.00
2018-03-23T09:25:19.437Z,325.00
2018-03-23T09:26:19.310Z,314.00
2018-03-23T09:27:19.314Z,298.00
2018-03-23T09:28:19.363Z,326.00
2018-03-23T09:29:19.365Z,324.00
2018-03-23T09:30:19.386Z,337.00
2018-03-23T09:31:19.381Z,343.00
2018-03-23T09:32:19.389Z,357.00
2018-03-23T09:33:19.401Z,333.00
2018-03-23T09:34:19.402Z,173.00
2018-03-23T09:35:41.337Z,201.00
2018-03-23T09:36:19.433Z,309.00
2018-03-23T09:37:19.430Z,344.00
2018-03-23T09:38:19.330Z,326.00
2018-03-23T09:39:19.542Z,290.00
2018-03-23T09:40:19.350Z,69.00
2018-03-23T09:41:19.354Z,62.00
2018-03-23T09:42:19.357Z,305.00
2018-03-23T09:43:19.369Z,333.00
2018-03-23T09:44:19.373Z,308.00
2018-03-23T09:45:19.384Z,332.00
2018-03-23T09:46:19.357Z,321.00
2018-03-23T09:47:19.398Z,34.00
2018-03-23T09:48:19.402Z,62.00
2018-03-23T09:49:19.413Z,36.00
2018-03-23T09:50:19.419Z,345.00
2018-03-23T09:51:19.429Z,328.00
2018-03-23T09:52:34.110Z,344.00
2018-03-23T09:53:19.342Z,336.00
2018-03-23T09:54:19.345Z,358.00
2018-03-23T09:55:19.350Z,345.00
2018-03-23T09:56:19.361Z,327.00
2018-03-23T09:57:19.366Z,345.00
2018-03-23T09:58:19.369Z,336.00
2018-03-23T09:59:19.386Z,350.00
2018-03-23T10:00:20.476Z,347.00
2018-03-23T10:01:19.393Z,349.00
2018-03-23T10:02:19.369Z,337.00
2018-03-23T10:03:19.373Z,348.00
2018-03-23T10:04:19.413Z,304.00
2018-03-23T10:05:19.435Z,341.00
2018-03-23T10:06:20.582Z,345.00
2018-03-23T10:07:19.439Z,345.00
2018-03-23T10:08:22.532Z,346.00
2018-03-23T10:09:19.357Z,347.00
2018-03-23T10:10:31.274Z,348.00
2018-03-23T10:11:26.845Z,353.00
2018-03-23T10:12:19.379Z,344.00
2018-03-23T10:13:19.388Z,337.00
2018-03-23T10:14:19.385Z,306.00
2018-03-23T10:15:19.402Z,343.00
2018-03-23T10:16:19.402Z,301.00
2018-03-23T10:17:19.411Z,339.00
2018-03-23T10:18:19.423Z,302.00
2018-03-23T10:19:19.390Z,346.00
2018-03-23T10:20:19.538Z,288.00
2018-03-23T10:21:19.465Z,354.00
2018-03-23T10:22:19.446Z,310.00
2018-03-23T10:23:19.349Z,337.00
2018-03-23T10:24:19.358Z,326.00
2018-03-23T10:25:19.464Z,357.00
2018-03-23T10:26:19.371Z,344.00
2018-03-23T10:27:19.491Z,349.00
2018-03-23T10:28:34.622Z,349.00
2018-03-23T10:29:19.394Z,349.00
2018-03-23T10:30:19.510Z,348.00
2018-03-23T10:31:19.414Z,351.00
2018-03-23T10:32:19.417Z,336.00
2018-03-23T10:33:19.421Z,342.00
2018-03-23T10:34:19.534Z,356.00
2018-03-23T10:35:19.435Z,325.00
2018-03-23T10:36:19.445Z,352.00
2018-03-23T10:37:19.456Z,346.00
2018-03-23T10:38:19.562Z,39.00
2018-03-23T10:39:19.366Z,329.00
2018-03-23T10:40:19.371Z,305.00
2018-03-23T10:41:19.387Z,327.00
2018-03-23T10:42:20.618Z,314.00
2018-03-23T10:43:19.397Z,333.00
2018-03-23T10:44:19.409Z,353.00
2018-03-23T10:45:19.413Z,347.00
2018-03-23T10:46:19.522Z,327.00
2018-03-23T10:47:24.548Z,322.00
2018-03-23T10:48:19.436Z,319.00
2018-03-23T10:49:19.394Z,307.00
2018-03-23T10:50:19.444Z,34.00
2018-03-23T10:51:19.453Z,300.00
2018-03-23T10:52:19.412Z,314.00
2018-03-23T10:53:19.427Z,78.00
2018-03-23T10:54:19.380Z,344.00
2018-03-23T10:55:19.447Z,7.00
2018-03-23T10:56:19.554Z,303.00
2018-03-23T10:57:19.291Z,333.00
2018-03-23T10:58:19.397Z,293.00
2018-03-23T10:59:19.523Z,327.00
2018-03-23T11:00:20.644Z,330.00
2018-03-23T11:01:19.385Z,335.00
2018-03-23T11:02:19.429Z,330.00
2018-03-23T11:03:19.442Z,346.00
2018-03-23T11:04:19.547Z,345.00
2018-03-23T11:05:22.289Z,333.00
2018-03-23T11:06:19.474Z,337.00
2018-03-23T11:07:19.439Z,341.00
2018-03-23T11:08:19.582Z,340.00
2018-03-23T11:09:19.486Z,327.00
2018-03-23T11:10:19.385Z,323.00
2018-03-23T11:11:19.394Z,13.00
2018-03-23T11:12:19.605Z,324.00
2018-03-23T11:13:19.410Z,314.00
2018-03-23T11:14:19.389Z,34.00
2018-03-23T11:15:19.422Z,330.00
2018-03-23T11:16:19.588Z,322.00
2018-03-23T11:17:19.294Z,355.00
2018-03-23T11:18:19.441Z,349.00
2018-03-23T11:19:19.409Z,6.00
2018-03-23T11:20:19.462Z,344.00
2018-03-23T11:21:19.466Z,302.00
2018-03-23T11:22:19.478Z,248.00
2018-03-23T11:23:19.484Z,4.00
2018-03-23T11:24:19.387Z,334.00
2018-03-23T11:25:19.358Z,335.00
2018-03-23T11:26:19.410Z,346.00
2018-03-23T11:27:19.395Z,349.00
2018-03-23T11:28:19.414Z,6.00
2018-03-23T11:29:19.521Z,327.00
2018-03-23T11:30:19.480Z,68.00
2018-03-23T11:31:19.434Z,29.00
2018-03-23T11:32:19.455Z,339.00
2018-03-23T11:33:19.557Z,19.00
2018-03-23T11:34:19.458Z,332.00
2018-03-23T11:35:19.478Z,348.00
2018-03-23T11:36:19.470Z,322.00
2018-03-23T11:37:19.379Z,338.00
2018-03-23T11:38:19.590Z,320.00
2018-03-23T11:39:19.403Z,328.00
2018-03-23T11:40:19.401Z,350.00
2018-03-23T11:41:19.405Z,352.00
2018-03-23T11:42:19.422Z,330.00
2018-03-23T11:43:19.423Z,352.00
2018-03-23T11:44:19.508Z,327.00
2018-03-23T11:45:19.395Z,2.00
2018-03-23T11:46:19.649Z,58.00
2018-03-23T11:47:19.449Z,7.00
2018-03-23T11:48:19.458Z,337.00
2018-03-23T11:49:19.438Z,298.00
2018-03-23T11:50:19.678Z,353.00
2018-03-23T11:51:19.487Z,310.00
2018-03-23T11:52:19.469Z,298.00
2018-03-23T11:53:19.353Z,331.00
2018-03-23T11:54:20.303Z,336.00
2018-03-23T11:55:19.505Z,328.00
2018-03-23T11:56:19.381Z,90.00
2018-03-23T11:57:19.374Z,26.00
2018-03-23T11:58:19.435Z,7.00
2018-03-23T11:59:19.537Z,337.00
2018-03-23T12:00:20.672Z,298.00
2018-03-23T12:01:19.454Z,340.00
2018-03-23T12:02:19.426Z,355.00
2018-03-23T12:03:19.757Z,355.00
2018-03-23T12:04:19.429Z,352.00
2018-03-23T12:05:19.477Z,349.00
2018-03-23T12:06:19.487Z,353.00
2018-03-23T12:07:19.597Z,348.00
2018-03-23T12:08:19.509Z,285.00
2018-03-23T12:09:19.519Z,309.00
2018-03-23T12:10:19.413Z,324.00
2018-03-23T12:11:19.738Z,2.00
2018-03-23T12:12:20.105Z,346.00
2018-03-23T12:13:19.643Z,312.00
2018-03-23T12:14:19.565Z,315.00
2018-03-23T12:15:19.451Z,298.00
2018-03-23T12:16:19.661Z,337.00
2018-03-23T12:17:19.474Z,306.00
2018-03-23T12:18:19.470Z,249.00
2018-03-23T12:19:19.487Z,342.00
2018-03-23T12:20:19.691Z,300.00
2018-03-23T12:21:19.470Z,348.00
2018-03-23T12:22:19.502Z,338.00
2018-03-23T12:23:19.521Z,288.00
2018-03-23T12:24:20.439Z,111.00
2018-03-23T12:25:22.054Z,357.00
2018-03-23T12:26:19.432Z,344.00
2018-03-23T12:27:19.402Z,333.00
2018-03-23T12:28:19.405Z,350.00
2018-03-23T12:29:26.719Z,346.00
2018-03-23T12:30:19.419Z,327.00
2018-03-23T12:31:19.471Z,357.00
2018-03-23T12:32:19.470Z,350.00
2018-03-23T12:33:19.482Z,345.00
2018-03-23T12:34:19.485Z,337.00
2018-03-23T12:35:19.497Z,347.00
2018-03-23T12:36:19.502Z,338.00
2018-03-23T12:37:19.506Z,345.00
2018-03-23T12:38:21.650Z,357.00
2018-03-23T12:39:19.427Z,349.00
2018-03-23T12:40:19.428Z,335.00
2018-03-23T12:41:19.542Z,349.00
2018-03-23T12:42:19.437Z,326.00
2018-03-23T12:43:19.452Z,356.00
2018-03-23T12:44:19.454Z,346.00
2018-03-23T12:45:19.463Z,353.00
2018-03-23T12:46:19.575Z,335.00
2018-03-23T12:47:19.479Z,344.00
2018-03-23T12:48:19.481Z,346.00